createdAt,value
2022-09-15T00:00:34.236Z,8.70
2022-09-15T00:03:01.514Z,9.07
2022-09-15T00:05:28.831Z,9.47
2022-09-15T00:07:56.069Z,10.13
2022-09-15T00:10:23.315Z,10.13
2022-09-15T00:12:50.665Z,10.27
2022-09-15T00:15:18.361Z,11.23
2022-09-15T00:17:50.237Z,12.37
2022-09-15T00:20:18.625Z,11.90
2022-09-15T00:22:45.873Z,12.60
2022-09-15T00:25:13.371Z,10.93
2022-09-15T00:27:40.929Z,10.90
2022-09-15T00:30:08.909Z,10.70
2022-09-15T00:32:36.101Z,10.27
2022-09-15T00:35:04.188Z,9.80
2022-09-15T00:37:31.382Z,8.87
2022-09-15T00:39:58.650Z,7.97
2022-09-15T00:42:25.916Z,8.47
2022-09-15T00:44:59.009Z,7.93
2022-09-15T00:47:29.830Z,8.80
2022-09-15T00:50:02.274Z,8.30
2022-09-15T00:52:32.494Z,8.23
2022-09-15T00:55:10.428Z,8.43
2022-09-15T00:57:47.614Z,8.50
2022-09-15T01:00:16.888Z,8.47
2022-09-15T01:02:44.913Z,8.90
2022-09-15T01:05:14.034Z,9.10
2022-09-15T01:07:56.887Z,7.90
2022-09-15T01:10:28.076Z,8.20
2022-09-15T01:12:57.730Z,7.93
2022-09-15T01:15:37.505Z,6.47
2022-09-15T01:18:19.261Z,6.67
2022-09-15T01:21:05.046Z,4.80
2022-09-15T01:24:09.542Z,4.23
2022-09-15T01:26:54.790Z,4.47
2022-09-15T01:29:43.346Z,4.37
2022-09-15T01:32:33.897Z,4.77
2022-09-15T01:35:10.299Z,4.80
2022-09-15T01:37:39.948Z,4.33
2022-09-15T01:40:07.585Z,3.90
2022-09-15T01:42:34.910Z,3.87
2022-09-15T01:45:06.881Z,4.00
2022-09-15T01:47:34.167Z,3.70
2022-09-15T01:50:12.010Z,3.57
2022-09-15T01:52:41.697Z,3.50
2022-09-15T01:55:14.571Z,4.10
2022-09-15T01:57:41.981Z,3.33
2022-09-15T02:00:09.776Z,2.63
2022-09-15T02:02:39.618Z,2.77
2022-09-15T02:05:21.028Z,3.10
2022-09-15T02:08:13.160Z,3.47
2022-09-15T02:11:03.675Z,3.87
2022-09-15T02:14:11.553Z,3.67
2022-09-15T02:16:39.967Z,3.07
2022-09-15T02:19:13.013Z,2.83
2022-09-15T02:21:47.331Z,2.77
2022-09-15T02:24:19.368Z,2.63
2022-09-15T02:26:47.403Z,2.73
2022-09-15T02:29:16.348Z,2.90
2022-09-15T02:31:43.637Z,2.93
2022-09-15T02:34:19.812Z,2.37
2022-09-15T02:36:47.334Z,2.20
2022-09-15T02:39:16.440Z,2.50
2022-09-15T02:41:44.059Z,2.50
2022-09-15T02:44:11.297Z,2.33
2022-09-15T02:46:40.056Z,2.33
2022-09-15T02:49:08.201Z,2.70
2022-09-15T02:51:35.981Z,2.70
2022-09-15T02:54:03.266Z,2.47
2022-09-15T02:56:30.813Z,3.33
2022-09-15T02:58:58.060Z,2.73
2022-09-15T03:01:32.494Z,2.33
2022-09-15T03:03:59.731Z,3.10
2022-09-15T03:06:29.413Z,2.57
2022-09-15T03:08:58.779Z,2.40
2022-09-15T03:11:27.189Z,2.43
2022-09-15T03:13:56.043Z,2.63
2022-09-15T03:16:23.704Z,4.43
2022-09-15T03:18:51.374Z,2.33
2022-09-15T03:21:19.009Z,2.30
2022-09-15T03:23:46.294Z,2.83
2022-09-15T03:26:13.614Z,2.30
2022-09-15T03:28:40.931Z,2.53
2022-09-15T03:31:08.607Z,2.93
2022-09-15T03:33:36.251Z,2.40
2022-09-15T03:36:03.762Z,2.73
2022-09-15T03:38:31.078Z,2.33
2022-09-15T03:41:05.018Z,2.70
2022-09-15T03:43:32.499Z,2.53
2022-09-15T03:46:00.212Z,2.80
2022-09-15T03:48:27.870Z,2.63
2022-09-15T03:50:55.133Z,2.63
2022-09-15T03:53:22.267Z,2.80
2022-09-15T03:55:50.113Z,2.70
2022-09-15T03:58:18.078Z,2.97
2022-09-15T04:00:46.411Z,2.90
2022-09-15T04:03:13.805Z,2.00
2022-09-15T04:05:42.383Z,2.70
2022-09-15T04:08:12.595Z,2.93
2022-09-15T04:10:40.744Z,2.57
2022-09-15T04:13:08.128Z,2.60
2022-09-15T04:15:35.440Z,2.30
2022-09-15T04:18:02.617Z,2.77
2022-09-15T04:20:29.724Z,2.70
2022-09-15T04:22:56.899Z,2.50
2022-09-15T04:25:24.919Z,2.80
2022-09-15T04:27:52.231Z,2.90
2022-09-15T04:30:19.544Z,3.20
2022-09-15T04:32:46.769Z,2.80
2022-09-15T04:35:14.065Z,3.30
2022-09-15T04:37:41.296Z,2.97
2022-09-15T04:40:10.377Z,2.90
2022-09-15T04:42:37.704Z,4.60
2022-09-15T04:45:05.944Z,4.80
2022-09-15T04:47:33.373Z,3.00
2022-09-15T04:50:00.765Z,2.97
2022-09-15T04:52:27.954Z,2.70
2022-09-15T04:54:55.416Z,3.23
2022-09-15T04:57:22.804Z,2.53
2022-09-15T04:59:50.302Z,2.80
2022-09-15T05:02:17.600Z,3.03
2022-09-15T05:04:44.871Z,2.77
2022-09-15T05:07:12.082Z,3.10
2022-09-15T05:09:39.341Z,2.50
2022-09-15T05:12:06.959Z,2.70
2022-09-15T05:14:34.404Z,2.60
2022-09-15T05:17:01.649Z,2.60
2022-09-15T05:19:29.120Z,2.70
2022-09-15T05:21:56.384Z,2.73
2022-09-15T05:24:23.950Z,2.47
2022-09-15T05:26:51.331Z,2.30
2022-09-15T05:29:18.454Z,3.27
2022-09-15T05:31:45.910Z,2.57
2022-09-15T05:34:13.217Z,2.37
2022-09-15T05:36:40.516Z,3.43
2022-09-15T05:39:07.768Z,6.07
2022-09-15T05:41:35.112Z,4.97
2022-09-15T05:44:02.478Z,2.23
2022-09-15T05:46:30.283Z,2.37
2022-09-15T05:48:58.277Z,2.70
2022-09-15T05:51:25.636Z,2.60
2022-09-15T05:53:52.941Z,3.27
2022-09-15T05:56:20.352Z,3.07
2022-09-15T05:58:48.025Z,3.30
2022-09-15T06:01:17.573Z,2.40
2022-09-15T06:03:44.942Z,4.07
2022-09-15T06:06:12.430Z,2.37
2022-09-15T06:08:55.319Z,2.50
2022-09-15T06:11:28.558Z,2.33
2022-09-15T06:13:56.045Z,2.73
2022-09-15T06:16:24.229Z,3.03
2022-09-15T06:18:53.109Z,2.37
2022-09-15T06:21:21.228Z,2.60
2022-09-15T06:23:54.038Z,2.50
2022-09-15T06:26:21.594Z,3.40
2022-09-15T06:28:52.583Z,5.80
2022-09-15T06:31:20.091Z,2.90
2022-09-15T06:33:53.482Z,2.33
2022-09-15T06:36:22.312Z,2.17
2022-09-15T06:38:49.481Z,2.20
2022-09-15T06:41:16.780Z,2.27
2022-09-15T06:43:44.153Z,3.00
2022-09-15T06:46:15.690Z,2.07
2022-09-15T06:48:47.444Z,2.33
2022-09-15T06:51:17.270Z,2.40
2022-09-15T06:53:44.434Z,3.00
2022-09-15T06:56:21.607Z,2.23
2022-09-15T06:58:51.975Z,2.50
2022-09-15T07:01:21.068Z,2.40
2022-09-15T07:03:48.235Z,3.50
2022-09-15T07:06:15.449Z,3.70
2022-09-15T07:09:17.917Z,3.17
2022-09-15T07:11:45.937Z,2.43
2022-09-15T07:14:12.953Z,3.00
2022-09-15T07:16:39.989Z,3.70
2022-09-15T07:19:06.988Z,4.13
2022-09-15T07:21:34.167Z,2.90
2022-09-15T07:24:05.078Z,3.00
2022-09-15T07:26:34.277Z,3.73
2022-09-15T07:29:02.792Z,3.37
2022-09-15T07:31:31.975Z,3.13
2022-09-15T07:34:11.167Z,4.97
2022-09-15T07:36:38.219Z,3.43
2022-09-15T07:39:06.219Z,3.47
2022-09-15T07:41:33.440Z,4.23
2022-09-15T07:44:00.599Z,3.47
2022-09-15T07:46:29.685Z,4.60
2022-09-15T07:49:02.977Z,3.23
2022-09-15T07:51:30.235Z,2.40
2022-09-15T07:54:08.614Z,5.70
2022-09-15T07:56:35.957Z,3.93
2022-09-15T07:59:35.562Z,3.40
2022-09-15T08:02:05.355Z,5.60
2022-09-15T08:04:32.336Z,6.43
2022-09-15T08:06:59.487Z,3.70
2022-09-15T08:09:26.474Z,5.27
2022-09-15T08:11:53.425Z,3.70
2022-09-15T08:14:20.414Z,3.63
2022-09-15T08:16:47.581Z,4.23
2022-09-15T08:19:14.589Z,3.53
2022-09-15T08:21:41.965Z,4.03
2022-09-15T08:24:09.357Z,2.57
2022-09-15T08:26:38.508Z,2.50
2022-09-15T08:29:05.975Z,2.90
2022-09-15T08:31:33.418Z,3.20
2022-09-15T08:34:04.101Z,2.00
2022-09-15T08:36:31.560Z,2.40
2022-09-15T08:38:58.534Z,2.10
2022-09-15T08:41:34.077Z,1.50
2022-09-15T08:44:22.056Z,1.67
2022-09-15T08:47:15.283Z,2.20
2022-09-15T08:50:04.152Z,2.10
2022-09-15T08:52:40.129Z,3.00
2022-09-15T08:56:09.370Z,2.50
2022-09-15T08:58:37.837Z,1.50
2022-09-15T09:01:25.163Z,2.17
2022-09-15T09:04:17.972Z,2.00
2022-09-15T09:06:58.829Z,2.00
2022-09-15T09:09:37.091Z,1.60
2022-09-15T09:12:21.264Z,1.50
2022-09-15T09:15:21.761Z,1.43
2022-09-15T09:18:04.603Z,1.57
2022-09-15T09:20:41.617Z,1.60
2022-09-15T09:23:12.680Z,1.70
2022-09-15T09:25:41.877Z,1.70
2022-09-15T09:28:31.586Z,1.90
2022-09-15T09:31:07.229Z,2.40
2022-09-15T09:34:01.957Z,1.93
2022-09-15T09:36:29.136Z,2.67
2022-09-15T09:38:56.073Z,1.87
2022-09-15T09:42:14.892Z,2.23
2022-09-15T09:44:41.854Z,1.80
2022-09-15T09:47:08.908Z,2.27
2022-09-15T09:49:40.594Z,2.03
2022-09-15T09:52:07.635Z,2.10
2022-09-15T09:54:35.883Z,2.70
2022-09-15T09:57:15.154Z,2.20
2022-09-15T09:59:42.931Z,3.03
2022-09-15T10:02:13.321Z,2.23
2022-09-15T10:04:41.875Z,2.60
2022-09-15T10:07:09.086Z,2.03
2022-09-15T10:09:37.153Z,2.30
2022-09-15T10:12:04.744Z,2.20
2022-09-15T10:14:32.689Z,2.23
2022-09-15T10:17:03.911Z,2.00
2022-09-15T10:19:32.820Z,2.13
2022-09-15T10:22:00.413Z,2.67
2022-09-15T10:24:27.860Z,2.20
2022-09-15T10:27:20.157Z,4.53
2022-09-15T10:29:47.158Z,3.43
2022-09-15T10:32:25.482Z,2.10
2022-09-15T10:35:12.584Z,2.10
2022-09-15T10:38:09.435Z,1.83
2022-09-15T10:40:53.804Z,2.07
2022-09-15T10:43:27.862Z,2.03
2022-09-15T10:46:27.196Z,2.47
2022-09-15T10:49:19.833Z,2.60
2022-09-15T10:52:08.409Z,2.70
2022-09-15T10:54:46.896Z,2.37
2022-09-15T10:57:38.283Z,2.23
2022-09-15T11:00:08.933Z,2.70
2022-09-15T11:03:06.043Z,2.23
2022-09-15T11:05:53.544Z,2.83
2022-09-15T11:08:45.439Z,2.50
2022-09-15T11:11:51.110Z,2.70
2022-09-15T11:14:27.116Z,2.33
2022-09-15T11:17:03.036Z,3.20
2022-09-15T11:19:41.998Z,2.70
2022-09-15T11:22:29.284Z,2.70
2022-09-15T11:25:13.237Z,2.80
2022-09-15T11:27:59.479Z,2.77
2022-09-15T11:30:31.797Z,2.80
2022-09-15T11:33:14.556Z,3.30
2022-09-15T11:36:01.467Z,2.63
2022-09-15T11:38:34.588Z,2.80
2022-09-15T11:41:27.374Z,3.13
2022-09-15T11:44:07.937Z,3.17
2022-09-15T11:46:59.195Z,3.20
2022-09-15T11:49:35.834Z,3.57
2022-09-15T11:52:15.482Z,2.70
2022-09-15T11:54:47.224Z,2.53
2022-09-15T11:57:18.184Z,2.70
2022-09-15T11:59:58.159Z,3.40
2022-09-15T12:02:58.293Z,2.88
2022-09-15T12:05:31.543Z,3.08
2022-09-15T12:08:14.249Z,3.05
2022-09-15T12:10:43.644Z,2.80
2022-09-15T12:13:19.423Z,2.80
2022-09-15T12:15:49.664Z,3.33
2022-09-15T12:18:43.738Z,2.80
2022-09-15T12:21:16.205Z,3.00
2022-09-15T12:23:59.511Z,2.70
2022-09-15T12:26:26.933Z,2.63
2022-09-15T12:29:04.217Z,4.95
2022-09-15T12:31:33.314Z,2.70
2022-09-15T12:34:20.303Z,2.78
2022-09-15T12:36:47.848Z,2.88
2022-09-15T12:39:40.336Z,3.22
2022-09-15T12:42:27.581Z,4.13
2022-09-15T12:45:08.362Z,3.20
2022-09-15T12:47:35.413Z,5.90
2022-09-15T12:50:15.866Z,4.25
2022-09-15T12:52:58.162Z,3.47
2022-09-15T12:55:35.769Z,2.30
2022-09-15T12:58:15.893Z,2.30
2022-09-15T13:01:16.584Z,2.40
2022-09-15T13:06:18.759Z,3.40
2022-09-15T13:08:47.633Z,1.60
2022-09-15T13:11:27.152Z,1.83
2022-09-15T13:14:00.527Z,0.90
2022-09-15T13:16:29.930Z,1.20
2022-09-15T13:19:19.718Z,1.00
2022-09-15T13:21:54.811Z,1.10
2022-09-15T13:24:47.859Z,1.30
2022-09-15T13:27:18.465Z,1.60
2022-09-15T13:29:55.323Z,1.30
2022-09-15T13:32:37.454Z,1.50
2022-09-15T13:35:20.858Z,1.60
2022-09-15T13:38:20.743Z,1.70
2022-09-15T13:41:17.055Z,2.07
2022-09-15T13:44:11.390Z,1.70
2022-09-15T13:47:00.291Z,1.77
2022-09-15T13:49:39.284Z,1.70
2022-09-15T13:52:30.691Z,1.90
2022-09-15T13:55:21.716Z,2.20
2022-09-15T14:00:53.733Z,1.87
2022-09-15T14:03:40.779Z,2.40
2022-09-15T14:06:17.542Z,2.27
2022-09-15T14:08:46.056Z,1.90
2022-09-15T14:11:14.830Z,2.63
2022-09-15T14:13:47.303Z,2.40
2022-09-15T14:16:26.104Z,1.70
2022-09-15T14:18:54.519Z,3.17
2022-09-15T14:21:26.046Z,2.40
2022-09-15T14:23:55.174Z,2.10
2022-09-15T14:26:24.211Z,1.87
2022-09-15T14:29:15.336Z,5.37
2022-09-15T14:31:42.359Z,1.77
2022-09-15T14:34:18.939Z,1.83
2022-09-15T14:36:46.098Z,2.70
2022-09-15T14:39:20.219Z,1.83
2022-09-15T14:41:47.690Z,3.30
2022-09-15T14:47:26.620Z,4.00
2022-09-15T14:50:12.536Z,4.18
2022-09-15T14:52:45.077Z,3.20
2022-09-15T14:55:35.500Z,1.50
2022-09-15T14:58:18.966Z,2.00
2022-09-15T15:01:17.784Z,1.38
2022-09-15T15:03:58.640Z,3.10
2022-09-15T15:06:50.618Z,2.05
2022-09-15T15:09:21.445Z,2.08
2022-09-15T15:11:53.537Z,1.60
2022-09-15T15:14:20.707Z,1.48
2022-09-15T15:16:52.706Z,2.38
2022-09-15T15:19:39.483Z,1.60
2022-09-15T15:22:20.733Z,1.58
2022-09-15T15:24:49.784Z,1.40
2022-09-15T15:27:26.032Z,1.90
2022-09-15T15:29:53.362Z,1.55
2022-09-15T15:32:25.134Z,1.50
2022-09-15T15:35:18.927Z,1.33
2022-09-15T15:37:46.104Z,1.35
2022-09-15T15:40:21.113Z,1.65
2022-09-15T15:43:05.814Z,1.30
2022-09-15T15:45:34.388Z,1.30
2022-09-15T15:48:02.975Z,1.40
2022-09-15T15:50:32.473Z,1.57
2022-09-15T15:53:00.655Z,1.40
2022-09-15T15:55:41.063Z,1.63
2022-09-15T15:58:10.422Z,1.40
2022-09-15T16:00:46.629Z,1.63
2022-09-15T16:03:14.403Z,1.60
2022-09-15T16:05:42.801Z,2.10
2022-09-15T16:08:38.299Z,2.10
2022-09-15T16:11:05.364Z,2.30
2022-09-15T16:13:32.427Z,2.40
2022-09-15T16:16:00.976Z,2.50
2022-09-15T16:18:28.917Z,3.23
2022-09-15T16:20:56.129Z,2.23
2022-09-15T16:23:23.325Z,1.50
2022-09-15T16:25:54.435Z,1.60
2022-09-15T16:28:21.579Z,1.57
2022-09-15T16:30:48.941Z,1.50
2022-09-15T16:33:17.160Z,1.20
2022-09-15T16:35:53.569Z,1.60
2022-09-15T16:38:20.980Z,1.90
2022-09-15T16:40:48.644Z,1.43
2022-09-15T16:43:16.819Z,27.77
2022-09-15T16:45:44.189Z,4.70
2022-09-15T16:48:11.388Z,4.30
2022-09-15T16:50:42.693Z,2.97
2022-09-15T16:53:20.223Z,2.20
2022-09-15T16:55:55.772Z,6.80
2022-09-15T16:58:23.131Z,1.93
2022-09-15T17:00:51.829Z,1.73
2022-09-15T17:03:20.337Z,2.30
2022-09-15T17:05:49.847Z,4.00
2022-09-15T17:08:17.971Z,2.60
2022-09-15T17:10:45.307Z,3.30
2022-09-15T17:13:17.608Z,3.83
2022-09-15T17:15:46.171Z,1.77
2022-09-15T17:18:15.553Z,1.70
2022-09-15T17:20:43.457Z,1.97
2022-09-15T17:23:18.586Z,1.87
2022-09-15T17:25:51.513Z,6.43
2022-09-15T17:28:22.872Z,10.70
2022-09-15T17:30:58.815Z,7.70
2022-09-15T17:33:25.888Z,2.37
2022-09-15T17:35:52.890Z,2.57
2022-09-15T17:38:21.813Z,2.23
2022-09-15T17:40:49.937Z,1.70
2022-09-15T17:43:18.822Z,1.40
2022-09-15T17:45:45.990Z,1.87
2022-09-15T17:48:13.296Z,2.07
2022-09-15T17:50:41.902Z,1.90
2022-09-15T17:53:16.887Z,2.00
2022-09-15T17:55:44.063Z,1.70
2022-09-15T17:58:11.206Z,1.50
2022-09-15T18:00:39.439Z,1.87
2022-09-15T18:03:22.641Z,1.73
2022-09-15T18:05:50.066Z,1.60
2022-09-15T18:08:17.420Z,1.70
2022-09-15T18:10:44.618Z,1.50
2022-09-15T18:13:16.888Z,1.10
2022-09-15T18:15:44.436Z,2.63
2022-09-15T18:18:20.047Z,2.50
2022-09-15T18:20:47.288Z,1.80
2022-09-15T18:23:15.738Z,1.20
2022-09-15T18:25:42.882Z,1.50
2022-09-15T18:28:10.222Z,1.43
2022-09-15T18:30:42.812Z,1.40
2022-09-15T18:33:15.306Z,1.70
2022-09-15T18:35:42.553Z,1.63
2022-09-15T18:38:10.113Z,1.20
2022-09-15T18:40:37.536Z,2.10
2022-09-15T18:43:04.781Z,2.03
2022-09-15T18:45:31.843Z,1.40
2022-09-15T18:47:59.044Z,1.10
2022-09-15T18:50:27.219Z,1.10
2022-09-15T18:52:54.843Z,1.10
2022-09-15T18:55:22.223Z,0.77
2022-09-15T18:57:49.705Z,1.00
2022-09-15T19:00:27.373Z,1.20
2022-09-15T19:02:58.435Z,5.63
2022-09-15T19:05:26.171Z,5.93
2022-09-15T19:07:53.551Z,8.23
2022-09-15T19:10:20.630Z,11.03
2022-09-15T19:12:47.677Z,4.43
2022-09-15T19:15:14.972Z,7.90
2022-09-15T19:17:42.404Z,3.73
2022-09-15T19:20:10.503Z,2.20
2022-09-15T19:22:37.955Z,3.17
2022-09-15T19:25:06.616Z,1.60
2022-09-15T19:27:34.123Z,3.50
2022-09-15T19:30:01.607Z,2.37
2022-09-15T19:32:28.808Z,1.63
2022-09-15T19:34:56.168Z,2.37
2022-09-15T19:37:23.396Z,1.93
2022-09-15T19:39:50.826Z,1.73
2022-09-15T19:42:18.106Z,1.93
2022-09-15T19:44:45.235Z,1.80
2022-09-15T19:47:12.535Z,2.30
2022-09-15T19:49:39.966Z,1.60
2022-09-15T19:52:07.380Z,1.60
2022-09-15T19:54:34.943Z,1.70
2022-09-15T19:57:02.307Z,1.97
2022-09-15T19:59:31.729Z,2.23
2022-09-15T20:02:00.063Z,1.90
2022-09-15T20:04:27.948Z,2.00
2022-09-15T20:06:55.014Z,1.70
2022-09-15T20:09:22.325Z,1.40
2022-09-15T20:11:49.558Z,1.53
2022-09-15T20:14:16.731Z,1.57
2022-09-15T20:16:43.963Z,1.53
2022-09-15T20:19:11.187Z,1.60
2022-09-15T20:21:49.957Z,1.50
2022-09-15T20:24:17.926Z,1.60
2022-09-15T20:26:45.249Z,1.73
2022-09-15T20:29:12.454Z,2.10
2022-09-15T20:31:39.550Z,2.10
2022-09-15T20:34:06.614Z,2.10
2022-09-15T20:36:35.654Z,1.90
2022-09-15T20:39:03.482Z,2.10
2022-09-15T20:41:32.214Z,2.10
2022-09-15T20:43:59.273Z,2.73
2022-09-15T20:46:26.569Z,3.43
2022-09-15T20:48:53.887Z,3.37
2022-09-15T20:51:23.265Z,3.17
2022-09-15T20:53:51.762Z,4.00
2022-09-15T20:56:21.461Z,3.10
2022-09-15T20:58:48.634Z,3.00
2022-09-15T21:01:17.536Z,3.50
2022-09-15T21:03:45.185Z,3.30
2022-09-15T21:06:30.501Z,4.30
2022-09-15T21:08:58.010Z,4.70
2022-09-15T21:11:26.601Z,4.30
2022-09-15T21:13:54.261Z,4.53
2022-09-15T21:16:23.187Z,3.93
2022-09-15T21:18:50.538Z,4.30
2022-09-15T21:21:25.499Z,4.10
2022-09-15T21:24:04.168Z,4.17
2022-09-15T21:26:57.727Z,4.63
2022-09-15T21:29:25.023Z,3.80
2022-09-15T21:31:52.384Z,4.47
2022-09-15T21:34:19.838Z,5.20
2022-09-15T21:36:46.985Z,4.90
2022-09-15T21:39:14.252Z,4.90
2022-09-15T21:41:41.696Z,5.00
2022-09-15T21:44:09.543Z,4.67
2022-09-15T21:46:36.748Z,5.13
2022-09-15T21:49:03.832Z,5.43
2022-09-15T21:51:31.065Z,5.13
2022-09-15T21:53:58.830Z,5.27
2022-09-15T21:56:26.710Z,5.50
2022-09-15T21:58:54.586Z,5.33
2022-09-15T22:01:26.892Z,5.27
2022-09-15T22:03:55.719Z,5.13
2022-09-15T22:06:28.013Z,5.67
2022-09-15T22:08:55.472Z,5.10
2022-09-15T22:11:23.053Z,5.57
2022-09-15T22:13:50.074Z,5.40
2022-09-15T22:16:19.341Z,5.97
2022-09-15T22:18:46.473Z,5.33
2022-09-15T22:21:18.195Z,6.17
2022-09-15T22:23:45.639Z,5.60
2022-09-15T22:26:18.044Z,6.10
2022-09-15T22:28:45.181Z,5.77
2022-09-15T22:31:13.318Z,6.10
2022-09-15T22:33:43.774Z,6.87
2022-09-15T22:36:11.566Z,6.33
2022-09-15T22:38:38.825Z,6.27
2022-09-15T22:41:12.448Z,6.33
2022-09-15T22:43:40.190Z,6.40
2022-09-15T22:46:07.699Z,6.57
2022-09-15T22:48:37.490Z,6.10
2022-09-15T22:51:06.970Z,6.50
2022-09-15T22:53:34.010Z,6.63
2022-09-15T22:56:09.310Z,6.83
2022-09-15T22:58:36.839Z,6.87
2022-09-15T23:01:12.322Z,7.07
2022-09-15T23:03:39.576Z,7.10
2022-09-15T23:06:07.113Z,6.93
2022-09-15T23:08:34.284Z,6.23
2022-09-15T23:11:06.112Z,7.17
2022-09-15T23:13:33.398Z,7.53
2022-09-15T23:16:00.891Z,6.87
2022-09-15T23:18:28.247Z,7.93
2022-09-15T23:20:59.476Z,7.37
2022-09-15T23:23:26.831Z,7.10
2022-09-15T23:25:54.313Z,7.53
2022-09-15T23:28:21.515Z,7.23
2022-09-15T23:30:55.756Z,7.83
2022-09-15T23:33:23.758Z,7.60
2022-09-15T23:35:51.176Z,8.57
2022-09-15T23:38:19.995Z,8.33
2022-09-15T23:40:47.521Z,8.23
2022-09-15T23:43:14.898Z,8.50
2022-09-15T23:45:42.130Z,8.20
2022-09-15T23:48:09.981Z,8.63
2022-09-15T23:50:37.722Z,7.63
2022-09-15T23:53:05.004Z,7.50
2022-09-15T23:55:32.279Z,8.27
2022-09-15T23:57:59.418Z,8.00
